Time;durP1;ratioP1;P1;durP2;ratioP2;P2;SDS_P1;SDS_P2;PMS_P1;PMS_P2;Temp;Humidity;BMP_temperature;BMP_pressure;BME280_temperature;BME280_humidity;BME280_pressure;Samples;Min_cycle;Max_cycle;Signal;HPM_P1;HPM_P2
2022/07/19 13:29:38;;;;;;;;;;;;;;;31.97;41.11;98722.09;4861478;29;20224;-68
2022/07/19 13:32:07;;;;;;;;;;;;;;;32.01;41.14;98711.06;4863654;29;19960;-68
2022/07/19 13:34:34;;;;;;;;;;;;;;;31.96;39.75;98708.97;4866222;29;19947;-68
2022/07/19 13:37:03;;;;;;;;;;;;;;;32.10;41.50;98713.63;4866077;29;19949;-68
2022/07/19 13:39:33;;;;;;;;;;;;;;;32.17;39.17;98704.38;4866074;29;19962;-68
2022/07/19 13:42:01;;;;;;;;;;;;;;;32.25;40.17;98697.50;4865675;29;19972;-68
2022/07/19 13:44:28;;;;;;;;;;;;;;;32.06;43.38;98696.53;4866162;29;19956;-68
2022/07/19 13:46:57;;;;;;;;;;;;;;;31.96;41.93;98698.16;4865828;29;19960;-68
2022/07/19 13:49:24;;;;;;;;;;;;;;;31.94;40.21;98695.00;4865577;29;19951;-68
2022/07/19 13:51:52;;;;;;;;;;;;;;;31.99;41.90;98693.44;4865129;29;19949;-68
2022/07/19 13:54:19;;;;;;;;;;;;;;;32.00;39.62;98690.03;4865500;29;19945;-68
2022/07/19 13:56:46;;;;;;;;;;;;;;;32.10;40.19;98690.50;4864427;29;19955;-68
2022/07/19 13:59:14;;;;;;;;;;;;;;;32.03;40.15;98703.44;4865188;29;19996;-68
2022/07/19 14:01:41;;;;;;;;;;;;;;;32.00;40.23;98692.13;4863934;29;19974;-68
2022/07/19 14:04:10;;;;;;;;;;;;;;;32.00;41.15;98687.13;4862883;29;19964;-68
2022/07/19 14:06:38;;;;;;;;;;;;;;;31.88;38.41;98691.38;4864473;29;19957;-68
2022/07/19 14:09:05;;;;;;;;;;;;;;;31.93;41.05;98689.78;4865085;29;19956;-68
2022/07/19 14:11:32;;;;;;;;;;;;;;;31.82;39.70;98681.94;4864468;29;19947;-68
2022/07/19 14:14:00;;;;;;;;;;;;;;;31.92;40.97;98673.72;4860919;29;19950;-68
2022/07/19 14:16:27;;;;;;;;;;;;;;;31.89;41.92;98683.50;4864512;29;19950;-68
2022/07/19 14:18:55;;;;;;;;;;;;;;;31.83;38.44;98684.31;4864867;29;19950;-68
2022/07/19 14:21:23;;;;;;;;;;;;;;;31.83;42.53;98681.41;4864501;29;19970;-68
2022/07/19 14:23:51;;;;;;;;;;;;;;;31.82;39.99;98674.03;4864285;29;19953;-68
2022/07/19 14:26:18;;;;;;;;;;;;;;;31.75;39.03;98668.81;4873127;29;20023;-68
2022/07/19 14:28:45;;;;;;;;;;;;;;;31.90;39.57;98665.59;4864220;29;19956;-68
2022/07/19 14:31:15;;;;;;;;;;;;;;;31.75;40.36;98668.81;4864372;29;19975;-68
2022/07/19 14:33:43;;;;;;;;;;;;;;;31.90;44.29;98671.38;4864374;29;19954;-68
2022/07/19 14:36:10;;;;;;;;;;;;;;;31.99;40.35;98665.28;4864749;29;19960;-69
2022/07/19 14:38:37;;;;;;;;;;;;;;;31.85;40.86;98663.50;4865010;29;19959;-69
2022/07/19 14:41:05;;;;;;;;;;;;;;;31.83;39.45;98658.28;4864193;29;19972;-69
2022/07/19 14:43:32;;;;;;;;;;;;;;;31.70;38.89;98660.97;4863520;29;19979;-69
2022/07/19 14:45:59;;;;;;;;;;;;;;;31.74;39.15;98657.81;4868597;29;19954;-68
2022/07/19 14:48:27;;;;;;;;;;;;;;;31.88;40.52;98671.13;4863622;29;19951;-68
2022/07/19 14:50:54;;;;;;;;;;;;;;;31.78;39.00;98667.75;4863574;29;19953;-68
2022/07/19 14:53:21;;;;;;;;;;;;;;;31.86;40.01;98650.63;4863219;29;19963;-69
2022/07/19 14:55:49;;;;;;;;;;;;;;;31.87;43.15;98651.41;4863690;29;19948;-69
2022/07/19 14:58:16;;;;;;;;;;;;;;;31.96;38.49;98654.00;4859468;29;20239;-69
2022/07/19 15:00:43;;;;;;;;;;;;;;;31.95;41.27;98652.41;4862840;29;20381;-69
2022/07/19 15:03:10;;;;;;;;;;;;;;;31.98;41.00;98648.47;4863576;29;19955;-69
2022/07/19 15:05:38;;;;;;;;;;;;;;;32.08;38.16;98643.94;4863561;29;19957;-69
2022/07/19 15:08:05;;;;;;;;;;;;;;;31.92;39.98;98639.78;4863873;29;20676;-69
2022/07/19 15:10:32;;;;;;;;;;;;;;;31.90;40.18;98641.66;4863495;29;19949;-68
2022/07/19 15:13:00;;;;;;;;;;;;;;;31.90;41.97;98636.66;4863445;29;19996;-68
2022/07/19 15:15:29;;;;;;;;;;;;;;;31.87;39.87;98640.63;4861641;29;19957;-69
2022/07/19 15:17:56;;;;;;;;;;;;;;;31.90;43.32;98641.66;4862912;29;19946;-69
2022/07/19 15:20:24;;;;;;;;;;;;;;;31.80;40.66;98641.97;4863044;29;19952;-69
2022/07/19 15:22:52;;;;;;;;;;;;;;;31.86;42.39;98639.06;4861460;29;19970;-69
2022/07/19 15:25:21;;;;;;;;;;;;;;;32.01;41.98;98630.81;4861297;29;19949;-68
2022/07/19 15:27:49;;;;;;;;;;;;;;;31.89;44.24;98634.31;4862451;29;20368;-68
2022/07/19 15:30:17;;;;;;;;;;;;;;;31.84;41.34;98636.69;4864042;29;19976;-68
2022/07/19 15:32:44;;;;;;;;;;;;;;;31.76;41.21;98632.81;4858624;29;19948;-68
2022/07/19 15:35:12;;;;;;;;;;;;;;;31.67;42.67;98626.53;4861245;29;19945;-68
2022/07/19 15:37:42;;;;;;;;;;;;;;;31.69;42.23;98626.81;4861245;29;19964;-68
2022/07/19 15:40:09;;;;;;;;;;;;;;;31.70;41.64;98628.34;4858581;29;19949;-69
2022/07/19 15:42:41;;;;;;;;;;;;;;;31.72;40.90;98619.94;4863873;29;19996;-68
2022/07/19 15:45:09;;;;;;;;;;;;;;;31.64;41.38;98619.72;4862630;29;19947;-68
2022/07/19 15:47:36;;;;;;;;;;;;;;;31.67;40.43;98614.97;4862610;29;20253;-68
2022/07/19 15:50:06;;;;;;;;;;;;;;;31.69;41.03;98615.25;4861437;29;19954;-68
2022/07/19 15:52:35;;;;;;;;;;;;;;;31.67;42.60;98606.28;4863659;29;19958;-68
2022/07/19 15:55:06;;;;;;;;;;;;;;;31.62;42.43;98605.00;4862190;29;19955;-69
2022/07/19 15:57:34;;;;;;;;;;;;;;;31.60;42.61;98603.97;4862256;29;20246;-69
2022/07/19 16:00:03;;;;;;;;;;;;;;;31.56;41.47;98606.38;4861918;29;20244;-68
2022/07/19 16:02:35;;;;;;;;;;;;;;;31.56;42.69;98604.25;4860945;29;20275;-69
2022/07/19 16:05:05;;;;;;;;;;;;;;;31.53;42.23;98592.97;4867727;29;19956;-69
2022/07/19 16:07:32;;;;;;;;;;;;;;;31.44;41.34;98596.97;4863448;29;20040;-68
2022/07/19 16:09:59;;;;;;;;;;;;;;;31.42;42.45;98595.91;4862331;29;19947;-68
2022/07/19 16:12:26;;;;;;;;;;;;;;;31.38;43.38;98599.06;4861616;29;19953;-68
2022/07/19 16:14:54;;;;;;;;;;;;;;;31.35;41.32;98596.47;4862331;29;20336;-68
2022/07/19 16:17:22;;;;;;;;;;;;;;;31.41;42.17;98585.66;4862898;29;19956;-69
2022/07/19 16:19:50;;;;;;;;;;;;;;;31.35;42.65;98594.34;4862081;29;19950;-69
2022/07/19 16:22:17;;;;;;;;;;;;;;;31.35;42.82;98587.78;4862018;29;19995;-69
2022/07/19 16:24:45;;;;;;;;;;;;;;;31.32;43.38;98580.97;4859867;29;19959;-69
2022/07/19 16:27:12;;;;;;;;;;;;;;;31.25;45.97;98584.41;4860835;29;21156;-69
2022/07/19 16:29:48;;;;;;;;;;;;;;;31.25;44.61;98581.53;4861492;29;19979;-69
2022/07/19 16:32:16;;;;;;;;;;;;;;;31.24;43.76;98579.94;4860311;29;19951;-69
2022/07/19 16:34:43;;;;;;;;;;;;;;;31.18;43.62;98579.16;4859653;29;19954;-69
2022/07/19 16:37:14;;;;;;;;;;;;;;;31.19;43.97;98580.75;4861836;29;20356;-69
2022/07/19 16:39:41;;;;;;;;;;;;;;;31.17;42.82;98574.72;4857109;29;19953;-69
2022/07/19 16:42:09;;;;;;;;;;;;;;;31.15;43.65;98574.47;4859865;29;19969;-69
2022/07/19 16:44:36;;;;;;;;;;;;;;;31.12;42.93;98578.44;4862342;29;19956;-69
2022/07/19 16:47:05;;;;;;;;;;;;;;;31.11;43.81;98574.75;4861845;29;20258;-69
2022/07/19 16:49:35;;;;;;;;;;;;;;;31.04;44.78;98572.41;4861881;29;19955;-69
2022/07/19 16:52:03;;;;;;;;;;;;;;;31.07;43.98;98579.22;4856090;29;19959;-69
2022/07/19 16:54:31;;;;;;;;;;;;;;;31.07;43.42;98585.00;4861904;29;19966;-69
2022/07/19 16:56:58;;;;;;;;;;;;;;;31.08;43.19;98570.03;4858684;29;19976;-69
2022/07/19 16:59:26;;;;;;;;;;;;;;;30.99;44.08;98581.09;4860123;29;19966;-68
2022/07/19 17:01:53;;;;;;;;;;;;;;;30.97;44.53;98572.16;4860914;29;20371;-68
2022/07/19 17:04:20;;;;;;;;;;;;;;;31.00;44.66;98576.91;4859730;29;19964;-69
2022/07/19 17:06:47;;;;;;;;;;;;;;;30.97;45.36;98575.84;4861452;29;19959;-69
2022/07/19 17:09:15;;;;;;;;;;;;;;;30.92;44.65;98581.63;4859737;29;20231;-69
2022/07/19 17:11:42;;;;;;;;;;;;;;;30.95;45.52;98580.59;4861633;29;19954;-69
2022/07/19 17:14:10;;;;;;;;;;;;;;;30.84;46.88;98569.03;4860942;29;19957;-69
2022/07/19 17:16:38;;;;;;;;;;;;;;;30.83;47.02;98573.25;4861277;29;19957;-69
2022/07/19 17:19:06;;;;;;;;;;;;;;;30.76;47.42;98574.59;4861126;29;20671;-69
2022/07/19 17:21:34;;;;;;;;;;;;;;;30.66;48.46;98567.50;4857461;29;19948;-68
2022/07/19 17:24:02;;;;;;;;;;;;;;;30.64;49.76;98570.13;4855149;29;19950;-69
2022/07/19 17:26:30;;;;;;;;;;;;;;;30.60;49.01;98572.50;4861707;29;19948;-69
2022/07/19 17:28:57;;;;;;;;;;;;;;;30.53;49.82;98575.94;4861165;29;20342;-69
2022/07/19 17:31:24;;;;;;;;;;;;;;;30.59;47.04;98573.03;4861351;29;19979;-68
2022/07/19 17:33:53;;;;;;;;;;;;;;;30.52;48.63;98569.38;4861120;29;19958;-68
2022/07/19 17:36:20;;;;;;;;;;;;;;;30.51;49.59;98578.56;4856893;29;19956;-69
2022/07/19 17:38:48;;;;;;;;;;;;;;;30.44;49.88;98577.00;4860638;29;19948;-69
2022/07/19 17:41:17;;;;;;;;;;;;;;;30.43;52.99;98580.41;4861445;29;20185;-73
2022/07/19 17:43:44;;;;;;;;;;;;;;;30.41;48.80;98580.16;4854935;29;20775;-70
2022/07/19 17:46:12;;;;;;;;;;;;;;;30.35;48.53;98580.13;4858596;29;19945;-70
2022/07/19 17:48:40;;;;;;;;;;;;;;;30.30;49.48;98575.13;4861308;29;20583;-70
2022/07/19 17:51:12;;;;;;;;;;;;;;;30.28;50.75;98580.66;4860751;29;19954;-70
2022/07/19 17:53:39;;;;;;;;;;;;;;;30.28;49.33;98574.06;4858743;29;19960;-70
2022/07/19 17:56:07;;;;;;;;;;;;;;;30.19;49.80;98578.03;4861556;29;19980;-70
2022/07/19 17:58:34;;;;;;;;;;;;;;;30.22;50.00;98581.97;4851754;29;19951;-70
2022/07/19 18:01:01;;;;;;;;;;;;;;;30.16;51.11;98581.16;4859033;29;20259;-69
2022/07/19 18:03:29;;;;;;;;;;;;;;;30.12;50.49;98581.44;4860893;29;19990;-70
2022/07/19 18:05:56;;;;;;;;;;;;;;;30.03;50.67;98580.91;4862370;29;20270;-69
2022/07/19 18:08:23;;;;;;;;;;;;;;;29.97;51.21;98580.91;4862048;29;19976;-69
2022/07/19 18:10:50;;;;;;;;;;;;;;;29.93;52.02;98572.50;4863519;29;20405;-69
2022/07/19 18:13:18;;;;;;;;;;;;;;;29.92;51.10;98578.81;4863773;29;19948;-69
2022/07/19 18:15:45;;;;;;;;;;;;;;;29.81;53.49;98579.56;4863886;29;20034;-70
2022/07/19 18:18:32;;;;;;;;;;;;;;;29.72;52.52;98579.00;4863584;29;20301;-70
2022/07/19 18:21:00;;;;;;;;;;;;;;;29.67;52.07;98574.00;4865471;29;19944;-70
2022/07/19 18:23:27;;;;;;;;;;;;;;;29.63;53.34;98576.38;4862844;29;20267;-70
2022/07/19 18:25:55;;;;;;;;;;;;;;;29.55;52.23;98581.84;4862033;29;19974;-70
2022/07/19 18:28:22;;;;;;;;;;;;;;;29.51;51.17;98577.66;4858907;29;19960;-69
2022/07/19 18:30:49;;;;;;;;;;;;;;;29.50;53.67;98567.41;4860663;29;19968;-69
2022/07/19 18:33:17;;;;;;;;;;;;;;;29.39;52.16;98571.06;4862165;29;19961;-69
2022/07/19 18:35:44;;;;;;;;;;;;;;;29.33;51.94;98569.47;4862198;29;19954;-69
2022/07/19 18:38:12;;;;;;;;;;;;;;;29.30;51.75;98574.16;4860463;29;19947;-70
2022/07/19 18:40:39;;;;;;;;;;;;;;;29.28;54.26;98573.91;4861767;29;19949;-70
2022/07/19 18:43:06;;;;;;;;;;;;;;;29.17;53.17;98580.38;4860979;29;19971;-70
2022/07/19 18:45:34;;;;;;;;;;;;;;;29.06;52.18;98574.56;4861959;29;20397;-69
2022/07/19 18:48:01;;;;;;;;;;;;;;;29.06;52.50;98573.78;4863267;29;20433;-70
2022/07/19 18:50:28;;;;;;;;;;;;;;;29.01;52.69;98588.94;4863265;29;19957;-69
2022/07/19 18:52:56;;;;;;;;;;;;;;;28.96;51.61;98584.75;4864624;29;19954;-68
2022/07/19 18:55:23;;;;;;;;;;;;;;;28.94;51.68;98580.78;4855774;29;19964;-70
2022/07/19 18:57:50;;;;;;;;;;;;;;;28.95;53.85;98582.38;4861751;29;20325;-70
2022/07/19 19:00:18;;;;;;;;;;;;;;;28.80;51.38;98579.69;4861456;29;19956;-70
2022/07/19 19:02:46;;;;;;;;;;;;;;;28.74;51.30;98578.84;4862242;29;19972;-71
2022/07/19 19:05:14;;;;;;;;;;;;;;;28.75;50.95;98588.28;4859703;29;19954;-69
2022/07/19 19:07:42;;;;;;;;;;;;;;;28.70;50.02;98586.16;4862951;29;20251;-69
2022/07/19 19:10:09;;;;;;;;;;;;;;;28.61;52.43;98582.19;4863216;29;19947;-69
2022/07/19 19:12:36;;;;;;;;;;;;;;;28.62;50.34;98589.53;4864298;29;19956;-69
2022/07/19 19:15:04;;;;;;;;;;;;;;;28.48;50.24;98587.56;4860748;29;19951;-69
2022/07/19 19:17:31;;;;;;;;;;;;;;;28.46;50.42;98595.91;4859756;29;19958;-69
2022/07/19 19:19:59;;;;;;;;;;;;;;;28.46;49.49;98595.13;4862778;29;19950;-69
2022/07/19 19:22:26;;;;;;;;;;;;;;;28.42;50.02;98594.56;4862991;29;19955;-69
2022/07/19 19:24:56;;;;;;;;;;;;;;;28.39;49.55;98601.38;4863333;29;19955;-69
2022/07/19 19:27:24;;;;;;;;;;;;;;;28.32;48.24;98602.59;4860842;29;19947;-69
2022/07/19 19:29:52;;;;;;;;;;;;;;;28.33;47.86;98609.16;4858204;29;19975;-69
2022/07/19 19:32:19;;;;;;;;;;;;;;;28.28;46.87;98609.88;4857087;29;19950;-69
2022/07/19 19:34:47;;;;;;;;;;;;;;;28.27;47.44;98614.84;4859414;29;19954;-69
2022/07/19 19:37:14;;;;;;;;;;;;;;;28.16;46.74;98606.16;4861077;29;19950;-69
2022/07/19 19:39:42;;;;;;;;;;;;;;;28.17;45.68;98619.22;4862024;29;19951;-69
2022/07/19 19:42:10;;;;;;;;;;;;;;;28.09;46.49;98614.44;4863455;29;20429;-69
2022/07/19 19:44:37;;;;;;;;;;;;;;;28.07;45.73;98623.59;4860163;29;19972;-69
2022/07/19 19:47:05;;;;;;;;;;;;;;;28.10;44.02;98630.41;4859894;29;19948;-69
2022/07/19 19:49:32;;;;;;;;;;;;;;;28.06;44.02;98635.56;4861112;29;19955;-69
2022/07/19 19:51:59;;;;;;;;;;;;;;;27.98;44.37;98629.47;4862416;29;19952;-69
2022/07/19 19:54:27;;;;;;;;;;;;;;;27.94;43.99;98628.91;4853526;29;19955;-69
2022/07/19 19:56:54;;;;;;;;;;;;;;;27.93;44.44;98641.69;4862169;29;19948;-69
2022/07/19 19:59:22;;;;;;;;;;;;;;;27.86;43.39;98634.31;4862787;29;19955;-69
2022/07/19 20:01:49;;;;;;;;;;;;;;;27.88;43.59;98636.69;4856745;29;19958;-68
2022/07/19 20:04:16;;;;;;;;;;;;;;;27.81;43.37;98637.91;4861741;29;19967;-69
2022/07/19 20:06:44;;;;;;;;;;;;;;;27.73;43.99;98641.75;4862373;29;19954;-69
2022/07/19 20:09:11;;;;;;;;;;;;;;;27.78;43.71;98643.91;4862940;29;19951;-69
2022/07/19 20:11:38;;;;;;;;;;;;;;;27.80;42.82;98644.94;4862261;29;19949;-69
2022/07/19 20:14:06;;;;;;;;;;;;;;;27.71;44.39;98639.38;4862197;29;19953;-69
2022/07/19 20:16:33;;;;;;;;;;;;;;;27.67;48.07;98638.03;4858705;29;19947;-69
2022/07/19 20:19:01;;;;;;;;;;;;;;;27.65;50.79;98638.53;4862557;29;19963;-69
2022/07/19 20:21:28;;;;;;;;;;;;;;;27.51;47.84;98648.03;4861308;29;19956;-69
2022/07/19 20:23:55;;;;;;;;;;;;;;;27.49;44.89;98650.63;4862068;29;19963;-69
2022/07/19 20:26:24;;;;;;;;;;;;;;;27.47;46.89;98649.53;4862122;29;19949;-68
2022/07/19 20:28:51;;;;;;;;;;;;;;;27.45;44.93;98655.00;4862237;29;19976;-68
2022/07/19 20:31:19;;;;;;;;;;;;;;;27.44;44.29;98657.06;4861755;29;19973;-68
